createdAt,value
2018-12-02T00:00:55.071Z,167.40
2018-12-02T00:03:24.261Z,167.10
2018-12-02T00:05:53.168Z,181.83
2018-12-02T00:08:22.061Z,173.53
2018-12-02T00:10:51.073Z,174.60
2018-12-02T00:13:19.999Z,180.20
2018-12-02T00:15:49.760Z,167.60
2018-12-02T00:18:18.690Z,172.63
2018-12-02T00:20:47.631Z,173.73
2018-12-02T00:23:16.566Z,175.07
2018-12-02T00:25:45.512Z,165.27
2018-12-02T00:28:14.445Z,179.57
2018-12-02T00:30:43.356Z,173.37
2018-12-02T00:33:12.405Z,172.37
2018-12-02T00:35:41.341Z,174.50
2018-12-02T00:38:10.273Z,166.53
2018-12-02T00:40:39.205Z,173.63
2018-12-02T00:43:08.781Z,171.60
2018-12-02T00:45:38.333Z,172.90
2018-12-02T00:48:08.790Z,177.53
2018-12-02T00:50:37.876Z,170.57
2018-12-02T00:53:08.409Z,171.60
2018-12-02T00:55:42.149Z,179.93
2018-12-02T00:58:11.066Z,179.07
2018-12-02T01:00:39.984Z,183.40
2018-12-02T01:03:10.004Z,168.17
2018-12-02T01:05:38.907Z,178.87
2018-12-02T01:08:08.071Z,180.17
2018-12-02T01:10:37.726Z,168.70
2018-12-02T01:13:08.818Z,178.10
2018-12-02T01:15:38.643Z,183.60
2018-12-02T01:18:07.609Z,180.30
2018-12-02T01:20:36.995Z,185.80
2018-12-02T01:23:06.640Z,188.63
2018-12-02T01:25:36.348Z,189.37
2018-12-02T01:28:05.316Z,181.60
2018-12-02T01:30:34.263Z,186.90
2018-12-02T01:33:03.231Z,197.10
2018-12-02T01:35:32.196Z,182.57
2018-12-02T01:38:01.162Z,189.33
2018-12-02T01:40:30.073Z,185.47
2018-12-02T01:42:59.041Z,188.83
2018-12-02T01:45:27.985Z,185.63
2018-12-02T01:47:57.412Z,191.47
2018-12-02T01:50:27.107Z,193.40
2018-12-02T01:52:56.881Z,195.27
2018-12-02T01:55:25.817Z,190.40
2018-12-02T01:57:54.747Z,183.17
2018-12-02T02:00:27.775Z,187.27
2018-12-02T02:02:57.444Z,196.30
2018-12-02T02:05:27.232Z,187.73
2018-12-02T02:07:56.190Z,187.97
2018-12-02T02:10:26.201Z,196.60
2018-12-02T02:12:55.484Z,195.63
2018-12-02T02:15:24.725Z,191.53
2018-12-02T02:17:54.217Z,195.27
2018-12-02T02:20:24.951Z,209.37
2018-12-02T02:22:54.107Z,194.30
2018-12-02T02:25:24.077Z,202.80
2018-12-02T02:27:55.466Z,205.40
2018-12-02T02:30:25.579Z,216.70
2018-12-02T02:32:54.487Z,191.63
2018-12-02T02:35:23.795Z,205.93
2018-12-02T02:37:53.988Z,197.80
2018-12-02T02:40:29.697Z,197.33
2018-12-02T02:42:58.675Z,185.10
2018-12-02T02:45:27.622Z,193.20
2018-12-02T02:47:56.655Z,196.20
2018-12-02T02:50:26.531Z,192.70
2018-12-02T02:52:56.773Z,201.83
2018-12-02T02:55:25.717Z,204.53
2018-12-02T02:57:54.724Z,197.17
2018-12-02T03:00:24.765Z,190.30
2018-12-02T03:02:53.722Z,192.43
2018-12-02T03:05:22.828Z,196.20
2018-12-02T03:07:51.763Z,186.73
2018-12-02T03:10:22.674Z,187.43
2018-12-02T03:12:53.418Z,190.27
2018-12-02T03:15:23.789Z,196.90
2018-12-02T03:17:52.681Z,196.13
2018-12-02T03:20:24.457Z,209.13
2018-12-02T03:22:55.363Z,202.97
2018-12-02T03:25:27.545Z,196.13
2018-12-02T03:27:56.493Z,195.43
2018-12-02T03:30:26.144Z,192.33
2018-12-02T03:32:55.196Z,209.83
2018-12-02T03:35:25.199Z,205.00
2018-12-02T03:37:56.760Z,205.20
2018-12-02T03:40:26.973Z,205.67
2018-12-02T03:42:56.598Z,208.77
2018-12-02T03:45:26.562Z,197.73
2018-12-02T03:47:55.575Z,210.57
2018-12-02T03:50:24.784Z,197.30
2018-12-02T03:52:53.752Z,193.70
2018-12-02T03:55:22.900Z,206.33
2018-12-02T03:57:51.889Z,213.17
2018-12-02T04:00:22.693Z,213.03
2018-12-02T04:02:52.480Z,217.53
2018-12-02T04:05:23.548Z,219.03
2018-12-02T04:07:57.675Z,214.53
2018-12-02T04:10:27.086Z,211.80
2018-12-02T04:12:56.420Z,200.93
2018-12-02T04:15:25.907Z,200.67
2018-12-02T04:17:54.835Z,210.50
2018-12-02T04:20:23.744Z,207.83
2018-12-02T04:22:53.247Z,211.40
2018-12-02T04:25:23.438Z,216.27
2018-12-02T04:27:52.498Z,201.90
2018-12-02T04:30:22.420Z,215.50
2018-12-02T04:32:52.585Z,226.83
2018-12-02T04:35:25.377Z,223.87
2018-12-02T04:37:54.424Z,213.43
2018-12-02T04:40:23.510Z,202.77
2018-12-02T04:42:52.452Z,210.87
2018-12-02T04:45:22.324Z,195.43
2018-12-02T04:47:51.263Z,203.93
2018-12-02T04:50:22.272Z,199.43
2018-12-02T04:52:51.285Z,206.93
2018-12-02T04:55:21.306Z,213.03
2018-12-02T04:57:51.013Z,198.27
2018-12-02T05:00:20.641Z,213.33
2018-12-02T05:02:51.324Z,203.90
2018-12-02T05:05:22.889Z,202.67
2018-12-02T05:07:51.905Z,192.37
2018-12-02T05:10:21.625Z,200.23
2018-12-02T05:12:51.818Z,203.33
2018-12-02T05:15:21.617Z,205.63
2018-12-02T05:17:51.274Z,189.07
2018-12-02T05:20:22.090Z,197.13
2018-12-02T05:22:51.092Z,214.53
2018-12-02T05:25:20.351Z,210.83
2018-12-02T05:27:50.178Z,210.57
2018-12-02T05:30:22.564Z,224.60
2018-12-02T05:32:54.944Z,211.27
2018-12-02T05:35:23.888Z,215.27
2018-12-02T05:37:52.796Z,224.30
2018-12-02T05:40:26.279Z,215.50
2018-12-02T05:42:55.293Z,215.50
2018-12-02T05:45:24.369Z,206.67
2018-12-02T05:47:53.339Z,213.07
2018-12-02T05:50:23.406Z,203.87
2018-12-02T05:52:56.414Z,210.63
2018-12-02T05:55:29.520Z,206.00
2018-12-02T05:57:58.564Z,200.63
2018-12-02T06:00:27.534Z,199.63
2018-12-02T06:02:56.491Z,207.57
2018-12-02T06:05:25.459Z,211.87
2018-12-02T06:07:54.475Z,206.50
2018-12-02T06:10:23.781Z,205.87
2018-12-02T06:12:53.116Z,216.33
2018-12-02T06:15:22.258Z,215.70
2018-12-02T06:17:51.194Z,198.20
2018-12-02T06:20:22.331Z,198.77
2018-12-02T06:22:52.593Z,191.73
2018-12-02T06:25:21.524Z,198.90
2018-12-02T06:27:50.714Z,204.67
2018-12-02T06:30:22.499Z,196.73
2018-12-02T06:32:52.888Z,195.00
2018-12-02T06:35:21.829Z,199.43
2018-12-02T06:37:51.492Z,198.60
2018-12-02T06:40:22.373Z,201.53
2018-12-02T06:42:51.529Z,204.77
2018-12-02T06:45:20.664Z,201.63
2018-12-02T06:47:49.598Z,198.67
2018-12-02T06:50:23.049Z,212.30
2018-12-02T06:52:52.245Z,202.27
2018-12-02T06:55:28.427Z,208.60
2018-12-02T06:58:04.775Z,186.80
2018-12-02T07:00:38.455Z,200.23
2018-12-02T07:03:18.692Z,191.40
2018-12-02T07:05:48.238Z,201.57
2018-12-02T07:08:17.194Z,201.70
2018-12-02T07:10:46.133Z,202.60
2018-12-02T07:13:15.035Z,203.20
2018-12-02T07:15:44.012Z,192.50
2018-12-02T07:18:16.506Z,183.33
2018-12-02T07:20:47.728Z,195.10
2018-12-02T07:23:17.368Z,193.97
2018-12-02T07:25:46.259Z,185.80
2018-12-02T07:28:15.222Z,190.03
2018-12-02T07:30:44.225Z,192.60
2018-12-02T07:33:13.398Z,193.97
2018-12-02T07:35:42.366Z,173.13
2018-12-02T07:38:20.066Z,190.53
2018-12-02T07:40:49.102Z,190.87
2018-12-02T07:43:18.016Z,188.97
2018-12-02T07:45:46.946Z,188.10
2018-12-02T07:48:16.123Z,183.17
2018-12-02T07:50:45.062Z,175.60
2018-12-02T07:53:14.146Z,182.60
2018-12-02T07:55:43.100Z,184.07
2018-12-02T07:58:15.054Z,197.27
2018-12-02T08:00:45.541Z,179.17
2018-12-02T08:03:14.543Z,185.50
2018-12-02T08:05:44.931Z,189.97
2018-12-02T08:08:13.947Z,176.37
2018-12-02T08:10:42.846Z,181.53
2018-12-02T08:13:11.937Z,182.57
2018-12-02T08:15:40.933Z,174.20
2018-12-02T08:18:10.201Z,186.07
2018-12-02T08:20:39.093Z,178.07
2018-12-02T08:23:08.047Z,182.70
2018-12-02T08:25:36.968Z,175.10
2018-12-02T08:28:06.375Z,185.60
2018-12-02T08:30:36.171Z,189.53
2018-12-02T08:33:05.085Z,167.10
2018-12-02T08:35:34.489Z,178.30
2018-12-02T08:38:09.169Z,177.50
2018-12-02T08:40:38.124Z,199.07
2018-12-02T08:43:08.242Z,191.13
2018-12-02T08:45:38.189Z,184.20
2018-12-02T08:48:06.817Z,186.57
2018-12-02T08:50:35.867Z,184.87
2018-12-02T08:53:04.829Z,186.40
2018-12-02T08:55:33.737Z,174.20
2018-12-02T08:58:02.690Z,181.33
2018-12-02T09:00:31.659Z,181.23
2018-12-02T09:03:03.409Z,163.73
2018-12-02T09:05:32.361Z,170.30
2018-12-02T09:08:01.941Z,171.87
2018-12-02T09:10:32.121Z,157.90
2018-12-02T09:13:03.537Z,171.80
2018-12-02T09:15:32.498Z,170.60
2018-12-02T09:18:01.454Z,171.27
2018-12-02T09:20:33.886Z,167.90
2018-12-02T09:23:02.971Z,173.07
2018-12-02T09:25:31.921Z,171.10
2018-12-02T09:28:01.750Z,170.60
2018-12-02T09:30:31.841Z,171.63
2018-12-02T09:33:00.772Z,175.57
2018-12-02T09:35:29.735Z,171.10
2018-12-02T09:37:58.681Z,170.57
2018-12-02T09:40:27.868Z,172.10
2018-12-02T09:42:56.895Z,179.40
2018-12-02T09:45:27.823Z,193.17
2018-12-02T09:48:01.273Z,175.70
2018-12-02T09:50:30.164Z,177.37
2018-12-02T09:52:59.157Z,159.27
2018-12-02T09:55:32.828Z,150.50
2018-12-02T09:58:01.737Z,147.20
2018-12-02T10:00:34.113Z,134.43
2018-12-02T10:02:59.862Z,133.17
2018-12-02T10:05:28.758Z,137.23
2018-12-02T10:07:57.704Z,134.27
2018-12-02T10:10:26.713Z,119.83
2018-12-02T10:12:57.904Z,129.33
2018-12-02T10:15:27.505Z,126.20
2018-12-02T10:17:56.466Z,124.80
2018-12-02T10:20:25.476Z,122.83
2018-12-02T10:22:54.413Z,120.73
2018-12-02T10:25:23.430Z,123.77
2018-12-02T10:27:52.476Z,120.13
2018-12-02T10:30:23.467Z,121.47
2018-12-02T10:32:54.139Z,114.43
2018-12-02T10:35:23.095Z,113.83
2018-12-02T10:37:52.939Z,109.77
2018-12-02T10:40:24.002Z,113.43
2018-12-02T10:42:53.149Z,111.07
2018-12-02T10:45:23.000Z,107.03
2018-12-02T10:47:54.733Z,92.50
2018-12-02T10:50:25.912Z,95.23
2018-12-02T10:52:56.190Z,96.90
2018-12-02T10:55:42.080Z,92.63
2018-12-02T10:58:26.774Z,94.80
2018-12-02T11:01:02.361Z,96.43
2018-12-02T11:03:31.629Z,92.87
2018-12-02T11:06:00.606Z,91.53
2018-12-02T11:08:29.721Z,91.40
2018-12-02T11:10:58.649Z,91.07
2018-12-02T11:13:27.588Z,92.03
2018-12-02T11:15:56.619Z,84.87
2018-12-02T11:18:25.574Z,87.80
2018-12-02T11:20:54.868Z,82.47
2018-12-02T11:23:23.774Z,79.27
2018-12-02T11:25:53.243Z,79.53
2018-12-02T11:28:22.121Z,73.10
2018-12-02T11:30:51.007Z,74.43
2018-12-02T11:33:20.493Z,69.40
2018-12-02T11:35:49.404Z,61.40
2018-12-02T11:38:18.431Z,66.70
2018-12-02T11:40:47.424Z,63.67
2018-12-02T11:43:16.323Z,67.63
2018-12-02T11:45:45.236Z,65.47
2018-12-02T11:48:14.121Z,65.23
2018-12-02T11:50:43.043Z,57.27
2018-12-02T11:53:12.019Z,58.20
2018-12-02T11:55:40.953Z,58.93
2018-12-02T11:58:09.916Z,58.73
2018-12-02T12:00:40.498Z,59.73
2018-12-02T12:03:09.455Z,55.33
2018-12-02T12:05:38.818Z,55.50
2018-12-02T12:08:10.327Z,57.13
2018-12-02T12:10:39.241Z,56.27
2018-12-02T12:13:08.180Z,52.07
2018-12-02T12:15:37.775Z,53.10
2018-12-02T12:18:08.718Z,55.83
2018-12-02T12:20:43.121Z,53.17
2018-12-02T12:23:15.517Z,52.47
2018-12-02T12:25:44.468Z,55.40
2018-12-02T12:28:13.383Z,55.93
2018-12-02T12:30:42.572Z,49.63
2018-12-02T12:33:12.036Z,47.43
2018-12-02T12:35:44.244Z,48.70
2018-12-02T12:38:13.301Z,52.80
2018-12-02T12:40:42.482Z,52.10
2018-12-02T12:43:20.041Z,55.23
2018-12-02T12:45:48.927Z,60.80
2018-12-02T12:48:17.895Z,54.07
2018-12-02T12:50:46.884Z,58.57
2018-12-02T12:53:15.793Z,58.20
2018-12-02T12:55:50.699Z,57.47
2018-12-02T12:58:16.230Z,56.13
2018-12-02T13:00:45.209Z,58.47
2018-12-02T13:03:14.123Z,65.57
2018-12-02T13:05:43.668Z,67.67
2018-12-02T13:08:14.259Z,61.40
2018-12-02T13:10:43.473Z,61.03
2018-12-02T13:13:12.671Z,60.83
2018-12-02T13:15:41.609Z,62.87
2018-12-02T13:18:11.253Z,58.73
2018-12-02T13:20:43.892Z,58.47
2018-12-02T13:23:12.864Z,60.23
2018-12-02T13:25:41.812Z,61.60
2018-12-02T13:28:10.706Z,64.83
2018-12-02T13:30:40.334Z,63.23
2018-12-02T13:33:09.468Z,63.83
2018-12-02T13:35:39.008Z,65.90
2018-12-02T13:38:08.038Z,64.27
2018-12-02T13:40:38.030Z,68.90
2018-12-02T13:43:15.237Z,69.60
2018-12-02T13:45:44.390Z,73.83
2018-12-02T13:48:13.330Z,81.63
2018-12-02T13:50:42.302Z,75.60
2018-12-02T13:53:11.213Z,70.60
2018-12-02T13:55:40.234Z,68.47
2018-12-02T13:58:09.795Z,72.60
2018-12-02T14:00:41.597Z,67.27
2018-12-02T14:03:13.388Z,75.13
2018-12-02T14:05:45.393Z,77.87
2018-12-02T14:08:14.305Z,103.10
2018-12-02T14:10:43.993Z,101.50
2018-12-02T14:13:20.149Z,90.57
2018-12-02T14:15:59.248Z,90.67
2018-12-02T14:18:34.926Z,92.50
2018-12-02T14:21:05.801Z,74.07
2018-12-02T14:23:34.946Z,75.77
2018-12-02T14:26:09.300Z,75.93
2018-12-02T14:28:43.841Z,70.50
2018-12-02T14:31:13.237Z,69.07
2018-12-02T14:33:42.201Z,72.20
2018-12-02T14:36:11.161Z,69.83
2018-12-02T14:38:40.410Z,82.73
2018-12-02T14:41:09.517Z,73.87
2018-12-02T14:43:38.454Z,69.13
2018-12-02T14:46:08.402Z,70.87
2018-12-02T14:48:37.691Z,68.90
2018-12-02T14:51:06.620Z,71.07
2018-12-02T14:53:35.575Z,67.63
2018-12-02T14:56:04.580Z,63.83
2018-12-02T14:58:33.502Z,65.67
2018-12-02T15:01:02.899Z,65.00
2018-12-02T15:03:31.824Z,65.10
2018-12-02T15:06:00.724Z,61.27
2018-12-02T15:08:29.792Z,59.13
2018-12-02T15:10:58.674Z,64.00
2018-12-02T15:13:27.609Z,69.43
2018-12-02T15:15:56.542Z,62.57
2018-12-02T15:18:25.448Z,62.13
2018-12-02T15:20:54.463Z,69.87
2018-12-02T15:23:23.366Z,71.63
2018-12-02T15:25:52.263Z,73.87
2018-12-02T15:28:21.207Z,85.03
2018-12-02T15:30:51.279Z,78.63
2018-12-02T15:33:20.236Z,81.67
2018-12-02T15:35:49.786Z,81.27
2018-12-02T15:38:18.741Z,73.00
2018-12-02T15:40:47.669Z,81.87
2018-12-02T15:43:16.664Z,79.03
2018-12-02T15:45:45.598Z,69.87
2018-12-02T15:48:14.521Z,74.10
2018-12-02T15:50:43.483Z,72.63
2018-12-02T15:53:12.407Z,80.77
2018-12-02T15:55:41.364Z,75.57
2018-12-02T15:58:12.234Z,76.87
2018-12-02T16:00:43.847Z,72.10
2018-12-02T16:03:12.761Z,68.20
2018-12-02T16:05:41.721Z,70.77
2018-12-02T16:08:10.677Z,63.67
2018-12-02T16:10:39.686Z,59.20
2018-12-02T16:13:10.083Z,66.10
2018-12-02T16:15:38.996Z,69.23
2018-12-02T16:18:09.742Z,64.67
2018-12-02T16:20:43.646Z,68.47
2018-12-02T16:23:12.760Z,64.13
2018-12-02T16:25:41.695Z,62.63
2018-12-02T16:28:10.620Z,64.40
2018-12-02T16:30:39.965Z,65.17
2018-12-02T16:33:08.892Z,64.00
2018-12-02T16:35:37.909Z,66.27
2018-12-02T16:38:08.666Z,65.07
2018-12-02T16:40:37.595Z,66.93
2018-12-02T16:43:07.579Z,64.53
2018-12-02T16:45:36.493Z,64.43
2018-12-02T16:48:06.528Z,67.47
2018-12-02T16:50:37.839Z,73.63
2018-12-02T16:53:11.709Z,73.40
2018-12-02T16:55:52.582Z,69.97
2018-12-02T16:58:26.369Z,74.10
2018-12-02T17:01:03.710Z,77.43
2018-12-02T17:03:32.633Z,61.70
2018-12-02T17:06:02.611Z,69.03
2018-12-02T17:08:31.594Z,59.00
2018-12-02T17:11:00.565Z,64.47
2018-12-02T17:13:29.581Z,63.60
2018-12-02T17:15:58.548Z,71.10
2018-12-02T17:18:27.452Z,65.70
2018-12-02T17:20:56.726Z,62.17
2018-12-02T17:23:25.687Z,68.93
2018-12-02T17:25:54.793Z,69.57
2018-12-02T17:28:28.631Z,65.93
2018-12-02T17:30:55.721Z,66.83
2018-12-02T17:33:24.824Z,68.93
2018-12-02T17:35:53.765Z,70.17
2018-12-02T17:38:24.127Z,68.03
2018-12-02T17:40:54.479Z,59.77
2018-12-02T17:43:23.461Z,60.30
2018-12-02T17:45:52.368Z,62.73
2018-12-02T17:48:21.344Z,69.83
2018-12-02T17:50:50.313Z,64.80
2018-12-02T17:53:19.242Z,61.63
2018-12-02T17:55:48.156Z,66.67
2018-12-02T17:58:17.120Z,62.40
2018-12-02T18:00:46.157Z,68.87
2018-12-02T18:03:19.229Z,76.10
2018-12-02T18:05:48.413Z,72.20
2018-12-02T18:08:17.325Z,66.00
2018-12-02T18:10:46.304Z,62.73
2018-12-02T18:13:15.258Z,61.77
2018-12-02T18:15:45.039Z,55.67
2018-12-02T18:18:13.983Z,61.63
2018-12-02T18:20:42.903Z,60.97
2018-12-02T18:23:11.918Z,55.37
2018-12-02T18:25:40.854Z,58.83
2018-12-02T18:28:09.939Z,63.10
2018-12-02T18:30:38.899Z,68.20
2018-12-02T18:33:08.165Z,61.40
2018-12-02T18:35:42.138Z,57.43
2018-12-02T18:38:15.906Z,57.83
2018-12-02T18:40:50.083Z,51.33
2018-12-02T18:43:19.459Z,57.50
2018-12-02T18:45:48.446Z,57.70
2018-12-02T18:48:17.430Z,57.13
2018-12-02T18:50:46.369Z,55.37
2018-12-02T18:53:15.880Z,54.27
2018-12-02T18:55:44.907Z,50.40
2018-12-02T18:58:13.863Z,52.83
2018-12-02T19:00:46.013Z,54.57
2018-12-02T19:03:16.072Z,53.07
2018-12-02T19:05:45.041Z,48.43
2018-12-02T19:08:14.054Z,58.23
2018-12-02T19:10:43.472Z,55.90
2018-12-02T19:13:12.520Z,52.83
2018-12-02T19:15:42.195Z,50.37
2018-12-02T19:18:11.126Z,52.50
2018-12-02T19:20:40.150Z,54.20
2018-12-02T19:23:11.666Z,50.13
2018-12-02T19:25:40.599Z,52.27
2018-12-02T19:28:09.537Z,48.83
2018-12-02T19:30:38.541Z,48.20
2018-12-02T19:33:09.554Z,50.30
2018-12-02T19:35:38.724Z,51.03
2018-12-02T19:38:13.345Z,49.67
2018-12-02T19:40:42.342Z,46.70
2018-12-02T19:43:11.241Z,41.27
2018-12-02T19:45:40.189Z,48.57
2018-12-02T19:48:09.112Z,45.63
2018-12-02T19:50:38.072Z,49.00
2018-12-02T19:53:07.098Z,44.30
2018-12-02T19:55:36.090Z,46.80
2018-12-02T19:58:06.318Z,48.00
2018-12-02T20:00:40.317Z,45.87
2018-12-02T20:03:09.731Z,45.47
2018-12-02T20:05:38.968Z,44.97
2018-12-02T20:08:10.315Z,48.97
2018-12-02T20:10:40.698Z,45.33
2018-12-02T20:13:11.933Z,50.30
2018-12-02T20:15:46.084Z,51.17
2018-12-02T20:18:15.219Z,46.43
2018-12-02T20:20:48.930Z,48.53
2018-12-02T20:23:23.861Z,47.67
2018-12-02T20:25:54.556Z,46.63
2018-12-02T20:28:25.804Z,49.93
2018-12-02T20:30:54.756Z,47.40
2018-12-02T20:33:23.832Z,55.53
2018-12-02T20:35:52.859Z,51.07
2018-12-02T20:38:21.798Z,47.40
2018-12-02T20:40:51.292Z,51.73
2018-12-02T20:43:20.358Z,51.73
2018-12-02T20:45:49.324Z,56.33
2018-12-02T20:48:18.271Z,47.30
2018-12-02T20:50:47.355Z,48.90
2018-12-02T20:53:16.314Z,53.97
2018-12-02T20:55:45.331Z,47.50
2018-12-02T20:58:14.808Z,56.00
2018-12-02T21:00:44.510Z,50.50
2018-12-02T21:03:28.945Z,49.07
2018-12-02T21:06:09.145Z,53.80
2018-12-02T21:08:38.297Z,54.53
2018-12-02T21:11:07.285Z,56.80
2018-12-02T21:13:36.452Z,51.77
2018-12-02T21:16:06.193Z,53.07
2018-12-02T21:18:35.196Z,53.80
2018-12-02T21:21:04.202Z,56.07
2018-12-02T21:23:33.163Z,59.70
2018-12-02T21:26:02.313Z,52.20
2018-12-02T21:28:31.269Z,47.77
2018-12-02T21:31:00.626Z,47.20
2018-12-02T21:33:29.655Z,48.60
2018-12-02T21:35:58.684Z,51.53
2018-12-02T21:38:27.653Z,55.83
2018-12-02T21:40:56.533Z,55.00
2018-12-02T21:43:25.569Z,52.77
2018-12-02T21:45:54.496Z,52.57
2018-12-02T21:48:23.525Z,54.00
2018-12-02T21:50:55.636Z,57.13
2018-12-02T21:53:24.588Z,53.03
2018-12-02T21:55:53.645Z,55.40
2018-12-02T21:58:22.589Z,55.67
2018-12-02T22:00:56.577Z,52.60
2018-12-02T22:03:25.494Z,53.83
2018-12-02T22:05:54.448Z,48.73
2018-12-02T22:08:23.399Z,48.37
2018-12-02T22:10:52.354Z,51.50
2018-12-02T22:13:21.312Z,52.77
2018-12-02T22:15:50.172Z,54.23
2018-12-02T22:18:19.095Z,52.30
2018-12-02T22:20:48.017Z,55.00
2018-12-02T22:23:16.931Z,54.50
2018-12-02T22:25:45.824Z,54.03
2018-12-02T22:28:15.216Z,50.47
2018-12-02T22:30:44.205Z,51.17
2018-12-02T22:33:13.100Z,53.83
2018-12-02T22:35:42.802Z,51.07
2018-12-02T22:38:11.707Z,51.00
2018-12-02T22:40:40.766Z,49.33
2018-12-02T22:43:09.698Z,50.20
2018-12-02T22:45:38.606Z,52.00
2018-12-02T22:48:07.510Z,52.83
2018-12-02T22:50:36.460Z,55.13
2018-12-02T22:53:05.583Z,53.67
2018-12-02T22:55:34.503Z,52.47
2018-12-02T22:58:03.395Z,49.90
2018-12-02T23:00:38.207Z,53.27
2018-12-02T23:03:13.825Z,50.73
2018-12-02T23:05:44.059Z,49.47
2018-12-02T23:08:13.112Z,47.93
2018-12-02T23:10:42.167Z,49.20
2018-12-02T23:13:11.719Z,51.80
2018-12-02T23:15:41.705Z,50.07
2018-12-02T23:18:12.104Z,48.80
2018-12-02T23:20:41.081Z,50.13
2018-12-02T23:23:09.967Z,48.77
2018-12-02T23:25:38.903Z,50.27
2018-12-02T23:28:08.240Z,50.93
2018-12-02T23:30:37.263Z,46.60
2018-12-02T23:33:07.093Z,50.83
2018-12-02T23:35:36.092Z,47.00
2018-12-02T23:38:05.511Z,47.77
2018-12-02T23:40:34.542Z,45.20
2018-12-02T23:43:03.415Z,47.83
2018-12-02T23:45:32.489Z,47.57
2018-12-02T23:48:01.379Z,52.33
2018-12-02T23:50:30.297Z,47.10
2018-12-02T23:52:59.216Z,46.77
2018-12-02T23:55:28.109Z,43.77
2018-12-02T23:57:56.998Z,49.23
